Terminal Aerodrome Forecast
Issued by NWS

Home | Current Version | Previous Version | Text Only | Print | Product List | Glossary On
Versions: 1 2 3 4 5 6 7 8 9 10 11
721
FTUS45 KABQ 080528
TAFGUP
TAF
KGUP 080528Z 0806/0906 VRB03KT P6SM SKC
      TEMPO 0820/0824 34007KT=

USA.gov is the U.S. government's official web portal to all federal, state and local government web resources and services.